createdAt,value
2023-09-28T00:00:52.923Z,7.55
2023-09-28T00:05:55.181Z,8.25
2023-09-28T00:10:58.280Z,7.55
2023-09-28T00:16:00.029Z,8.13
2023-09-28T00:21:02.393Z,8.05
2023-09-28T00:26:04.165Z,7.78
2023-09-28T00:31:07.405Z,7.57
2023-09-28T00:36:09.338Z,7.53
2023-09-28T00:41:11.609Z,7.90
2023-09-28T00:46:15.993Z,7.70
2023-09-28T00:51:18.418Z,8.02
2023-09-28T00:56:20.590Z,8.05
2023-09-28T01:01:22.506Z,7.80
2023-09-28T01:06:26.168Z,7.53
2023-09-28T01:11:29.406Z,7.22
2023-09-28T01:16:31.262Z,8.00
2023-09-28T01:21:33.142Z,8.38
2023-09-28T01:26:35.722Z,7.95
2023-09-28T01:31:37.407Z,8.00
2023-09-28T01:36:39.050Z,7.65
2023-09-28T01:41:40.943Z,7.63
2023-09-28T01:46:42.607Z,7.22
2023-09-28T01:51:44.307Z,7.47
2023-09-28T01:56:45.948Z,8.60
2023-09-28T02:01:47.686Z,7.50
2023-09-28T02:06:49.490Z,7.70
2023-09-28T02:11:51.168Z,7.22
2023-09-28T02:16:53.749Z,7.25
2023-09-28T02:21:55.403Z,7.70
2023-09-28T02:26:57.449Z,7.43
2023-09-28T02:31:59.190Z,7.43
2023-09-28T02:37:02.300Z,7.10
2023-09-28T02:42:08.618Z,6.85
2023-09-28T02:47:10.988Z,6.43
2023-09-28T02:52:12.687Z,7.43
2023-09-28T02:57:14.337Z,7.75
2023-09-28T03:02:16.046Z,8.15
2023-09-28T03:07:18.256Z,7.28
2023-09-28T03:12:21.442Z,6.97
2023-09-28T03:17:23.917Z,8.00
2023-09-28T03:22:25.576Z,7.68
2023-09-28T03:27:27.256Z,8.23
2023-09-28T03:32:29.027Z,8.15
2023-09-28T03:37:30.717Z,8.18
2023-09-28T03:42:32.357Z,8.32
2023-09-28T03:47:34.373Z,8.13
2023-09-28T03:52:36.250Z,7.72
2023-09-28T03:57:38.806Z,8.35
2023-09-28T04:02:46.889Z,8.15
2023-09-28T04:07:51.131Z,8.65
2023-09-28T04:12:55.974Z,8.32
2023-09-28T04:17:57.697Z,7.95
2023-09-28T04:22:59.402Z,8.50
2023-09-28T04:28:01.177Z,8.07
2023-09-28T04:33:03.350Z,7.97
2023-09-28T04:38:05.153Z,8.52
2023-09-28T04:43:06.819Z,8.32
2023-09-28T04:48:08.492Z,8.30
2023-09-28T04:53:10.286Z,8.55
2023-09-28T04:58:11.988Z,8.52
2023-09-28T05:03:13.737Z,8.30
2023-09-28T05:08:15.464Z,7.85
2023-09-28T05:13:17.214Z,8.05
2023-09-28T05:18:18.846Z,8.35
2023-09-28T05:23:20.482Z,7.65
2023-09-28T05:28:22.137Z,7.88
2023-09-28T05:33:23.973Z,8.23
2023-09-28T05:38:25.677Z,7.85
2023-09-28T05:43:27.702Z,7.90
2023-09-28T05:48:29.311Z,8.10
2023-09-28T05:53:30.941Z,8.20
2023-09-28T05:58:32.644Z,9.13
2023-09-28T06:03:36.474Z,7.80
2023-09-28T06:08:38.277Z,8.23
2023-09-28T06:13:52.448Z,7.85
2023-09-28T06:19:03.210Z,7.40
2023-09-28T06:24:05.158Z,7.18
2023-09-28T06:29:07.246Z,7.45
2023-09-28T06:34:09.318Z,8.05
2023-09-28T06:39:11.351Z,7.28
2023-09-28T06:44:13.134Z,7.53
2023-09-28T06:49:14.834Z,7.45
2023-09-28T06:54:17.651Z,6.95
2023-09-28T06:59:19.370Z,6.85
2023-09-28T07:04:21.321Z,6.93
2023-09-28T07:09:22.981Z,6.72
2023-09-28T07:14:24.673Z,6.28
2023-09-28T07:19:27.223Z,6.28
2023-09-28T07:24:34.390Z,6.03
2023-09-28T07:29:36.009Z,5.55
2023-09-28T07:34:38.070Z,5.43
2023-09-28T07:39:39.696Z,5.65
2023-09-28T07:44:41.568Z,5.45
2023-09-28T07:49:43.221Z,5.45
2023-09-28T07:54:44.945Z,5.53
2023-09-28T07:59:46.672Z,5.65
2023-09-28T08:04:50.862Z,5.55
2023-09-28T08:09:53.514Z,5.38
2023-09-28T08:14:55.831Z,4.90
2023-09-28T08:19:57.654Z,5.03
2023-09-28T08:24:59.540Z,4.80
2023-09-28T08:30:01.180Z,4.75
2023-09-28T08:35:02.862Z,5.32
2023-09-28T08:40:05.582Z,5.25
2023-09-28T08:45:09.897Z,5.68
2023-09-28T08:50:13.784Z,5.22
2023-09-28T08:55:16.170Z,5.05
2023-09-28T09:00:24.049Z,5.03
2023-09-28T09:05:30.511Z,4.78
2023-09-28T09:10:32.539Z,4.97
2023-09-28T09:15:37.232Z,4.97
2023-09-28T09:20:38.938Z,4.95
2023-09-28T09:25:46.491Z,5.28
2023-09-28T09:30:48.501Z,5.43
2023-09-28T09:35:53.845Z,5.43
2023-09-28T09:40:59.906Z,5.20
2023-09-28T09:46:08.910Z,5.35
2023-09-28T09:51:13.454Z,5.05
2023-09-28T09:56:16.977Z,5.93
2023-09-28T10:01:19.143Z,5.45
2023-09-28T10:06:22.771Z,5.50
2023-09-28T10:11:24.540Z,5.35
2023-09-28T10:16:26.932Z,5.55
2023-09-28T10:21:28.580Z,5.40
2023-09-28T10:26:32.475Z,5.45
2023-09-28T10:31:55.414Z,5.00
2023-09-28T10:37:09.088Z,5.10
2023-09-28T10:42:19.429Z,4.80
2023-09-28T10:47:24.595Z,5.30
2023-09-28T10:52:27.021Z,4.63
2023-09-28T10:57:33.134Z,4.97
2023-09-28T11:02:38.649Z,5.88
2023-09-28T11:07:41.551Z,4.78
2023-09-28T11:12:43.632Z,4.57
2023-09-28T11:17:48.299Z,4.30
2023-09-28T11:22:57.080Z,4.57
2023-09-28T11:27:59.348Z,4.47
2023-09-28T11:33:04.454Z,5.10
2023-09-28T11:38:10.857Z,4.80
2023-09-28T11:43:12.937Z,4.38
2023-09-28T11:48:21.002Z,4.75
2023-09-28T11:53:23.627Z,4.38
2023-09-28T11:58:25.895Z,5.32
2023-09-28T12:03:28.973Z,4.28
2023-09-28T12:08:31.308Z,4.65
2023-09-28T12:13:32.989Z,4.40
2023-09-28T12:18:34.694Z,4.32
2023-09-28T12:23:36.631Z,4.60
2023-09-28T12:28:38.865Z,4.82
2023-09-28T12:33:41.102Z,4.50
2023-09-28T12:38:43.122Z,4.40
2023-09-28T12:43:45.408Z,4.50
2023-09-28T12:48:47.096Z,4.95
2023-09-28T12:53:48.802Z,4.53
2023-09-28T12:58:50.894Z,4.55
2023-09-28T13:03:53.042Z,4.75
2023-09-28T13:08:55.151Z,4.25
2023-09-28T13:13:57.320Z,4.10
2023-09-28T13:19:00.643Z,4.30
2023-09-28T13:24:14.138Z,4.10
2023-09-28T13:29:18.494Z,4.38
2023-09-28T13:34:20.191Z,4.25
2023-09-28T13:39:28.571Z,4.28
2023-09-28T13:44:30.639Z,4.50
2023-09-28T13:49:32.531Z,3.75
2023-09-28T13:54:35.941Z,4.10
2023-09-28T13:59:39.309Z,4.15
2023-09-28T14:04:41.424Z,4.28
2023-09-28T14:09:43.388Z,4.40
2023-09-28T14:14:45.898Z,4.05
2023-09-28T14:19:47.504Z,4.40
2023-09-28T14:24:49.962Z,4.00
2023-09-28T14:29:51.618Z,4.10
2023-09-28T14:34:53.541Z,4.25
2023-09-28T14:39:57.286Z,3.80
2023-09-28T14:44:58.918Z,3.63
2023-09-28T14:50:03.845Z,4.82
2023-09-28T14:55:06.221Z,4.35
2023-09-28T15:00:14.060Z,4.20
2023-09-28T15:05:16.318Z,4.03
2023-09-28T15:10:18.108Z,4.20
2023-09-28T15:15:20.522Z,4.38
2023-09-28T15:20:22.176Z,4.85
2023-09-28T15:25:23.848Z,4.13
2023-09-28T15:30:25.471Z,4.72
2023-09-28T15:35:27.963Z,4.30
2023-09-28T15:40:37.142Z,4.68
2023-09-28T15:45:39.247Z,4.40
2023-09-28T15:50:44.425Z,4.55
2023-09-28T15:55:47.257Z,4.72
2023-09-28T16:00:49.931Z,4.93
2023-09-28T16:05:51.557Z,4.55
2023-09-28T16:10:53.394Z,4.63
2023-09-28T16:15:55.224Z,4.78
2023-09-28T16:20:57.409Z,4.53
2023-09-28T16:25:59.238Z,4.80
2023-09-28T16:31:01.011Z,4.65
2023-09-28T16:36:02.867Z,5.32
2023-09-28T16:41:04.540Z,5.07
2023-09-28T16:46:06.340Z,4.45
2023-09-28T16:51:08.610Z,5.15
2023-09-28T16:56:10.317Z,5.20
2023-09-28T17:01:12.175Z,4.93
2023-09-28T17:06:16.596Z,4.97
2023-09-28T17:11:18.312Z,5.50
2023-09-28T17:16:21.512Z,5.03
2023-09-28T17:21:23.190Z,5.20
2023-09-28T17:26:24.876Z,5.05
2023-09-28T17:31:26.587Z,5.60
2023-09-28T17:36:28.323Z,5.10
2023-09-28T17:41:29.999Z,5.35
2023-09-28T17:46:32.267Z,5.60
2023-09-28T17:51:35.460Z,5.43
2023-09-28T17:56:37.098Z,5.35
2023-09-28T18:01:38.760Z,5.45
2023-09-28T18:06:41.598Z,5.80
2023-09-28T18:11:43.373Z,6.15
2023-09-28T18:16:45.517Z,6.10
2023-09-28T18:21:47.243Z,5.40
2023-09-28T18:26:49.050Z,5.57
2023-09-28T18:31:50.715Z,5.50
2023-09-28T18:36:52.971Z,5.53
2023-09-28T18:41:54.755Z,5.53
2023-09-28T18:46:56.379Z,5.97
2023-09-28T18:51:58.032Z,5.95
2023-09-28T18:56:59.936Z,5.95
2023-09-28T19:02:01.710Z,6.07
2023-09-28T19:07:03.470Z,6.45
2023-09-28T19:12:08.889Z,6.35
2023-09-28T19:17:11.166Z,6.72
2023-09-28T19:22:12.988Z,6.45
2023-09-28T19:27:27.763Z,6.55
2023-09-28T19:32:36.558Z,6.63
2023-09-28T19:37:39.779Z,6.30
2023-09-28T19:42:42.874Z,6.25
2023-09-28T19:47:44.597Z,6.60
2023-09-28T19:52:46.561Z,5.85
2023-09-28T19:57:49.014Z,6.85
2023-09-28T20:02:50.718Z,6.95
2023-09-28T20:07:52.570Z,6.93
2023-09-28T20:12:56.582Z,8.15
2023-09-28T20:17:59.353Z,7.20
2023-09-28T20:23:01.037Z,7.82
2023-09-28T20:28:02.752Z,7.68
2023-09-28T20:33:04.626Z,8.07
2023-09-28T20:38:06.307Z,7.15
2023-09-28T20:43:08.388Z,7.40
2023-09-28T20:48:10.587Z,8.18
2023-09-28T20:53:12.438Z,8.18
2023-09-28T20:58:14.145Z,7.57
2023-09-28T21:03:15.924Z,7.63
2023-09-28T21:08:17.668Z,8.15
2023-09-28T21:13:19.350Z,7.90
2023-09-28T21:18:21.135Z,7.63
2023-09-28T21:23:22.869Z,8.80
2023-09-28T21:28:24.630Z,8.15
2023-09-28T21:33:26.498Z,8.07
2023-09-28T21:38:28.399Z,8.50
2023-09-28T21:43:30.269Z,8.20
2023-09-28T21:48:33.338Z,8.40
2023-09-28T21:53:35.171Z,8.02
2023-09-28T21:58:37.144Z,8.13
2023-09-28T22:03:39.410Z,8.60
2023-09-28T22:08:41.231Z,8.25
2023-09-28T22:13:43.156Z,8.35
2023-09-28T22:18:44.848Z,8.30
2023-09-28T22:23:46.586Z,8.60
2023-09-28T22:28:48.305Z,7.90
2023-09-28T22:33:50.064Z,8.30
2023-09-28T22:38:51.756Z,8.82
2023-09-28T22:43:53.419Z,8.55
2023-09-28T22:48:58.047Z,8.75
2023-09-28T22:53:59.830Z,8.95
2023-09-28T22:59:01.444Z,9.02
2023-09-28T23:04:03.484Z,9.15
2023-09-28T23:09:05.186Z,9.40
2023-09-28T23:14:08.192Z,9.60
2023-09-28T23:19:09.925Z,8.75
2023-09-28T23:24:14.764Z,8.60
2023-09-28T23:29:16.612Z,7.97
2023-09-28T23:34:20.427Z,9.13
2023-09-28T23:39:22.090Z,9.57
2023-09-28T23:44:23.792Z,8.57
2023-09-28T23:49:28.203Z,9.75
2023-09-28T23:54:30.151Z,9.48
2023-09-28T23:59:31.876Z,8.82
